Time;durP1;ratioP1;P1;durP2;ratioP2;P2;SDS_P1;SDS_P2;PMS_P1;PMS_P2;Temp;Humidity;BMP_temperature;BMP_pressure;BME280_temperature;BME280_humidity;BME280_pressure;Samples;Min_cycle;Max_cycle;Signal;HPM_P1;HPM_P2
2023/07/01 00:00:34;;;;;;;17.35;11.70;;;;;;;;;;5051320;28;20057;-87
2023/07/01 00:03:04;;;;;;;19.17;11.70;;;;;;;;;;5019805;28;20022;-86
2023/07/01 00:05:29;;;;;;;19.38;12.35;;;;;;;;;;5032489;28;20036;-87
2023/07/01 00:07:55;;;;;;;20.08;12.15;;;;;;;;;;5030252;28;20172;-86
2023/07/01 00:10:20;;;;;;;21.63;12.68;;;;;;;;;;5015409;28;20064;-85
2023/07/01 00:12:46;;;;;;;21.52;13.65;;;;;;;;;;5032108;28;20034;-86
2023/07/01 00:15:11;;;;;;;20.15;13.38;;;;;;;;;;5019348;28;20033;-86
2023/07/01 00:17:41;;;;;;;21.45;13.43;;;;;;;;;;5032357;28;20176;-85
2023/07/01 00:20:07;;;;;;;19.15;12.73;;;;;;;;;;5023802;28;20042;-86
2023/07/01 00:22:33;;;;;;;22.00;14.30;;;;;;;;;;5021700;28;20025;-87
2023/07/01 00:24:58;;;;;;;22.65;14.23;;;;;;;;;;5028122;28;20099;-85
2023/07/01 00:27:23;;;;;;;23.75;13.57;;;;;;;;;;5025539;28;20033;-86
2023/07/01 00:29:49;;;;;;;21.00;14.25;;;;;;;;;;5021732;28;20129;-87
2023/07/01 00:32:14;;;;;;;23.25;14.65;;;;;;;;;;5032261;28;20034;-85
2023/07/01 00:34:40;;;;;;;22.67;15.13;;;;;;;;;;5017301;28;20080;-86
2023/07/01 00:37:05;;;;;;;23.38;13.80;;;;;;;;;;5032227;28;20041;-86
2023/07/01 00:39:31;;;;;;;21.73;13.75;;;;;;;;;;5022739;28;20041;-86
2023/07/01 00:41:56;;;;;;;22.83;15.13;;;;;;;;;;5025437;28;20030;-85
2023/07/01 00:44:22;;;;;;;22.35;15.35;;;;;;;;;;5028845;28;20068;-85
2023/07/01 00:46:47;;;;;;;23.92;15.25;;;;;;;;;;5034716;28;20092;-86
2023/07/01 00:49:13;;;;;;;24.80;15.52;;;;;;;;;;5034371;28;20034;-87
2023/07/01 00:51:39;;;;;;;22.23;14.63;;;;;;;;;;5032151;28;20417;-85
2023/07/01 00:54:04;;;;;;;21.42;14.60;;;;;;;;;;5020149;28;20042;-86
2023/07/01 00:56:30;;;;;;;23.27;14.82;;;;;;;;;;5021480;28;20041;-85
2023/07/01 00:58:56;;;;;;;23.80;15.32;;;;;;;;;;5022761;28;20037;-86
2023/07/01 01:01:33;;;;;;;21.88;14.50;;;;;;;;;;5032215;28;20044;-86
2023/07/01 01:04:29;;;;;;;20.23;13.63;;;;;;;;;;5030011;28;20034;-85
2023/07/01 01:07:05;;;;;;;24.88;15.73;;;;;;;;;;5047738;28;20064;-85
2023/07/01 01:09:48;;;;;;;22.58;13.98;;;;;;;;;;5028358;28;20061;-87
2023/07/01 01:12:17;;;;;;;22.35;13.88;;;;;;;;;;5030409;28;20765;-86
2023/07/01 01:14:44;;;;;;;21.63;14.27;;;;;;;;;;5023737;28;20029;-86
2023/07/01 01:17:13;;;;;;;22.45;13.68;;;;;;;;;;5022167;28;20164;-85
2023/07/01 01:20:12;;;;;;;22.83;13.00;;;;;;;;;;5025497;28;20064;-86
2023/07/01 01:22:44;;;;;;;20.02;12.93;;;;;;;;;;5016249;28;20038;-86
2023/07/01 01:25:12;;;;;;;17.70;12.27;;;;;;;;;;5016257;28;20026;-86
2023/07/01 01:27:40;;;;;;;18.20;12.05;;;;;;;;;;5017175;28;20021;-86
2023/07/01 01:30:06;;;;;;;18.58;11.98;;;;;;;;;;5019824;28;20033;-86
2023/07/01 01:32:35;;;;;;;20.42;12.02;;;;;;;;;;5024945;28;20034;-86
2023/07/01 01:35:02;;;;;;;15.35;10.75;;;;;;;;;;5026799;28;20040;-84
2023/07/01 01:37:47;;;;;;;16.20;11.20;;;;;;;;;;5028907;28;20111;-86
2023/07/01 01:40:27;;;;;;;19.38;11.85;;;;;;;;;;5014734;28;20056;-85
2023/07/01 01:43:19;;;;;;;17.08;11.63;;;;;;;;;;5017250;28;20069;-86
2023/07/01 01:45:45;;;;;;;20.48;12.63;;;;;;;;;;5007408;28;20030;-86
2023/07/01 01:48:11;;;;;;;19.58;13.10;;;;;;;;;;5024994;28;20399;-87
2023/07/01 01:50:40;;;;;;;19.98;12.73;;;;;;;;;;5030161;28;20041;-86
2023/07/01 01:53:07;;;;;;;22.02;13.48;;;;;;;;;;5018049;28;20030;-87
2023/07/01 01:55:33;;;;;;;19.52;13.60;;;;;;;;;;5031030;28;20056;-86
2023/07/01 01:57:59;;;;;;;21.98;13.65;;;;;;;;;;5030929;28;20419;-87
2023/07/01 02:00:26;;;;;;;22.50;14.73;;;;;;;;;;5017363;28;20030;-86
2023/07/01 02:02:51;;;;;;;21.73;14.25;;;;;;;;;;5020029;28;20048;-88
2023/07/01 02:05:17;;;;;;;22.58;13.55;;;;;;;;;;5023376;28;20053;-87
2023/07/01 02:07:42;;;;;;;22.50;14.02;;;;;;;;;;5031005;28;20125;-87
2023/07/01 02:10:08;;;;;;;19.75;12.60;;;;;;;;;;5033871;28;20092;-87
2023/07/01 02:12:34;;;;;;;22.52;14.15;;;;;;;;;;5014621;28;20033;-85
2023/07/01 02:14:59;;;;;;;23.27;14.15;;;;;;;;;;5020787;28;20042;-85
2023/07/01 02:17:25;;;;;;;21.40;14.05;;;;;;;;;;5025549;28;20079;-86
2023/07/01 02:19:51;;;;;;;22.02;13.95;;;;;;;;;;5038214;28;20037;-87
2023/07/01 02:22:16;;;;;;;22.48;14.10;;;;;;;;;;5034054;28;20514;-86
2023/07/01 02:24:42;;;;;;;23.67;14.40;;;;;;;;;;5034706;28;20557;-86
2023/07/01 02:27:08;;;;;;;23.15;14.13;;;;;;;;;;5032003;28;20037;-86
2023/07/01 02:29:34;;;;;;;25.33;15.65;;;;;;;;;;5042707;28;20040;-84
2023/07/01 02:31:59;;;;;;;24.08;14.18;;;;;;;;;;5019863;28;20064;-88
2023/07/01 02:34:26;;;;;;;24.52;14.68;;;;;;;;;;5021872;28;20061;-87
2023/07/01 02:36:52;;;;;;;22.98;14.50;;;;;;;;;;5041190;28;20038;-86
2023/07/01 02:39:18;;;;;;;21.77;14.07;;;;;;;;;;5028564;28;20038;-85
2023/07/01 02:41:43;;;;;;;21.92;14.30;;;;;;;;;;5030445;28;20175;-87
2023/07/01 02:44:11;;;;;;;20.73;13.88;;;;;;;;;;5035536;28;20124;-86
2023/07/01 02:46:37;;;;;;;21.10;13.60;;;;;;;;;;5020637;28;20515;-86
2023/07/01 02:49:02;;;;;;;18.23;12.25;;;;;;;;;;5020226;28;20107;-87
2023/07/01 02:51:28;;;;;;;17.38;11.75;;;;;;;;;;5037661;28;20038;-87
2023/07/01 02:53:53;;;;;;;18.20;11.82;;;;;;;;;;5007577;28;20033;-86
2023/07/01 02:56:20;;;;;;;14.73;10.77;;;;;;;;;;5044114;28;20175;-85
2023/07/01 02:58:45;;;;;;;16.88;10.90;;;;;;;;;;5031733;28;20507;-85
2023/07/01 03:01:12;;;;;;;17.42;11.20;;;;;;;;;;5019511;28;20041;-86
2023/07/01 03:03:38;;;;;;;15.18;10.27;;;;;;;;;;5025347;28;20125;-85
2023/07/01 03:06:03;;;;;;;15.05;10.15;;;;;;;;;;5006607;28;20065;-85
2023/07/01 03:08:28;;;;;;;15.75;10.80;;;;;;;;;;5013317;28;20085;-85
2023/07/01 03:10:54;;;;;;;15.32;10.35;;;;;;;;;;5034431;28;20041;-85
2023/07/01 03:13:19;;;;;;;15.20;10.30;;;;;;;;;;5022707;28;20040;-86
2023/07/01 03:15:45;;;;;;;14.77;10.15;;;;;;;;;;5035264;28;20040;-86
2023/07/01 03:18:10;;;;;;;16.00;10.32;;;;;;;;;;5040227;28;20430;-85
2023/07/01 03:20:36;;;;;;;16.55;10.93;;;;;;;;;;5019983;28;20057;-87
2023/07/01 03:23:02;;;;;;;18.88;11.27;;;;;;;;;;5023336;28;20064;-87
2023/07/01 03:25:28;;;;;;;21.02;12.48;;;;;;;;;;5024980;28;20038;-87
2023/07/01 03:27:53;;;;;;;18.88;12.93;;;;;;;;;;5029874;28;20057;-85
2023/07/01 03:30:23;;;;;;;21.08;12.40;;;;;;;;;;5030708;28;20030;-86
2023/07/01 03:32:48;;;;;;;19.55;12.43;;;;;;;;;;5036495;28;20115;-87
2023/07/01 03:35:15;;;;;;;19.60;13.25;;;;;;;;;;5028965;28;20712;-87
2023/07/01 03:37:42;;;;;;;20.85;12.82;;;;;;;;;;5021618;28;20052;-86
2023/07/01 03:40:11;;;;;;;18.67;11.90;;;;;;;;;;5025127;28;20026;-88
2023/07/01 03:42:41;;;;;;;21.08;12.40;;;;;;;;;;5027361;28;20457;-87
2023/07/01 03:45:08;;;;;;;19.10;12.77;;;;;;;;;;5030285;28;20030;-87
2023/07/01 03:47:39;;;;;;;20.80;13.00;;;;;;;;;;5031440;28;20065;-85
2023/07/01 03:50:07;;;;;;;21.08;13.18;;;;;;;;;;5035422;28;20037;-86
2023/07/01 03:52:34;;;;;;;20.17;12.77;;;;;;;;;;5033343;28;20041;-85
2023/07/01 03:55:00;;;;;;;19.50;13.07;;;;;;;;;;5021127;28;20105;-86
2023/07/01 03:57:25;;;;;;;23.60;13.23;;;;;;;;;;5023672;28;20534;-87
2023/07/01 03:59:51;;;;;;;20.98;13.45;;;;;;;;;;5028156;28;20037;-87
2023/07/01 04:02:16;;;;;;;20.00;12.52;;;;;;;;;;5029177;28;20044;-86
2023/07/01 04:04:42;;;;;;;20.90;13.85;;;;;;;;;;5032999;28;20034;-87
2023/07/01 04:07:07;;;;;;;21.92;13.43;;;;;;;;;;5032928;28;20029;-86
2023/07/01 04:09:33;;;;;;;22.52;14.10;;;;;;;;;;5018172;28;20120;-87
2023/07/01 04:11:59;;;;;;;22.38;14.68;;;;;;;;;;5020855;28;20080;-87
2023/07/01 04:14:24;;;;;;;24.85;15.68;;;;;;;;;;5034138;28;20057;-87
2023/07/01 04:16:50;;;;;;;25.33;15.13;;;;;;;;;;5032402;28;20615;-85
2023/07/01 04:19:16;;;;;;;25.85;16.58;;;;;;;;;;5010243;28;20033;-86
2023/07/01 04:21:41;;;;;;;26.25;16.83;;;;;;;;;;5031810;28;20029;-85
2023/07/01 04:24:07;;;;;;;27.52;16.80;;;;;;;;;;5017901;28;20029;-85
2023/07/01 04:26:34;;;;;;;24.50;15.77;;;;;;;;;;5017696;28;20080;-85
2023/07/01 04:29:00;;;;;;;25.88;16.05;;;;;;;;;;5023160;28;20479;-85
2023/07/01 04:31:26;;;;;;;28.15;17.45;;;;;;;;;;5015395;28;20029;-85
2023/07/01 04:33:51;;;;;;;29.00;17.83;;;;;;;;;;5030766;28;20478;-87
2023/07/01 04:36:16;;;;;;;29.23;17.73;;;;;;;;;;5039248;23;20484;-87
2023/07/01 04:38:42;;;;;;;29.33;17.13;;;;;;;;;;5007760;28;20065;-86
2023/07/01 04:41:07;;;;;;;26.55;15.80;;;;;;;;;;5008676;28;20026;-86
2023/07/01 04:43:33;;;;;;;28.85;17.05;;;;;;;;;;5009751;28;20034;-85
2023/07/01 04:45:59;;;;;;;31.63;18.38;;;;;;;;;;5003471;28;20061;-88
2023/07/01 04:48:24;;;;;;;28.77;18.25;;;;;;;;;;5019966;28;20109;-86
2023/07/01 04:50:50;;;;;;;25.58;16.58;;;;;;;;;;5006456;28;20038;-85
2023/07/01 04:53:15;;;;;;;30.25;18.55;;;;;;;;;;4999101;28;20038;-85
2023/07/01 04:55:41;;;;;;;27.35;18.17;;;;;;;;;;5024020;28;20447;-86
2023/07/01 04:58:06;;;;;;;32.92;18.90;;;;;;;;;;4993350;28;20062;-84
2023/07/01 05:00:32;;;;;;;33.85;19.75;;;;;;;;;;5017996;28;20393;-85
2023/07/01 05:02:58;;;;;;;32.88;19.65;;;;;;;;;;4995954;28;20393;-85
2023/07/01 05:05:24;;;;;;;35.78;21.30;;;;;;;;;;5006173;28;20560;-85
2023/07/01 05:07:49;;;;;;;37.58;21.67;;;;;;;;;;4999284;28;20042;-86
2023/07/01 05:10:15;;;;;;;37.67;21.73;;;;;;;;;;5000883;28;20048;-85
2023/07/01 05:12:40;;;;;;;44.10;22.67;;;;;;;;;;5004718;28;20050;-85
2023/07/01 05:15:06;;;;;;;41.83;23.25;;;;;;;;;;5031851;28;20053;-86
2023/07/01 05:17:32;;;;;;;43.15;23.98;;;;;;;;;;5007617;28;20033;-84
2023/07/01 05:19:57;;;;;;;43.40;23.10;;;;;;;;;;5010685;28;20036;-84
2023/07/01 05:22:23;;;;;;;38.83;23.42;;;;;;;;;;5005648;28;20399;-86
2023/07/01 05:24:49;;;;;;;41.05;22.30;;;;;;;;;;5004975;28;20451;-85
2023/07/01 05:27:14;;;;;;;41.75;23.58;;;;;;;;;;5012764;28;20025;-86
2023/07/01 05:29:40;;;;;;;43.05;24.02;;;;;;;;;;5024860;28;20546;-86
2023/07/01 05:32:07;;;;;;;45.58;25.02;;;;;;;;;;5012390;28;20472;-85
2023/07/01 05:34:32;;;;;;;48.33;25.10;;;;;;;;;;5025776;28;20098;-86
2023/07/01 05:36:58;;;;;;;41.65;23.30;;;;;;;;;;5011912;28;20669;-86
2023/07/01 05:39:24;;;;;;;42.25;23.00;;;;;;;;;;5002644;28;20039;-86
2023/07/01 05:41:49;;;;;;;42.40;23.80;;;;;;;;;;5022294;28;20045;-86
2023/07/01 05:44:15;;;;;;;41.53;24.65;;;;;;;;;;4999758;28;20149;-86
2023/07/01 05:46:40;;;;;;;39.00;22.40;;;;;;;;;;5008383;28;20049;-87
2023/07/01 05:49:07;;;;;;;36.80;21.60;;;;;;;;;;5012311;28;20080;-86
2023/07/01 05:51:33;;;;;;;33.72;19.02;;;;;;;;;;5020705;28;20083;-86
2023/07/01 05:53:58;;;;;;;17.60;11.35;;;;;;;;;;5010591;28;20039;-85
2023/07/01 05:56:24;;;;;;;21.42;10.60;;;;;;;;;;5017849;28;20042;-85
2023/07/01 05:58:50;;;;;;;11.77;7.18;;;;;;;;;;5014310;28;20049;-85
2023/07/01 06:01:16;;;;;;;10.35;6.53;;;;;;;;;;5008698;28;20046;-81
2023/07/01 06:03:41;;;;;;;8.52;5.80;;;;;;;;;;5007720;28;20065;-84
2023/07/01 06:06:07;;;;;;;12.98;7.30;;;;;;;;;;5031550;28;20049;-88
2023/07/01 06:08:32;;;;;;;10.32;6.35;;;;;;;;;;5015410;28;20033;-86
2023/07/01 06:10:58;;;;;;;9.48;5.45;;;;;;;;;;5011380;28;20043;-86
2023/07/01 06:13:23;;;;;;;7.82;4.78;;;;;;;;;;5002161;28;20030;-86
2023/07/01 06:15:49;;;;;;;6.78;4.43;;;;;;;;;;5011910;28;20046;-86
2023/07/01 06:18:14;;;;;;;7.30;4.10;;;;;;;;;;5014795;28;20042;-85
2023/07/01 06:20:40;;;;;;;4.88;3.08;;;;;;;;;;5013234;28;20278;-84
2023/07/01 06:23:05;;;;;;;4.28;3.00;;;;;;;;;;5001099;28;20030;-84
2023/07/01 06:25:31;;;;;;;7.95;3.38;;;;;;;;;;5013478;28;20077;-83
2023/07/01 06:27:56;;;;;;;3.60;2.45;;;;;;;;;;5008851;28;20038;-85
2023/07/01 06:30:22;;;;;;;2.72;2.00;;;;;;;;;;5004038;28;20050;-86
2023/07/01 06:32:47;;;;;;;3.08;2.00;;;;;;;;;;5006986;28;20034;-85
2023/07/01 06:35:13;;;;;;;2.80;1.88;;;;;;;;;;5009303;28;20077;-86
2023/07/01 06:37:38;;;;;;;2.95;2.15;;;;;;;;;;5017484;28;20566;-83
2023/07/01 06:40:04;;;;;;;4.10;2.63;;;;;;;;;;5018288;28;20419;-83
2023/07/01 06:42:30;;;;;;;4.00;2.80;;;;;;;;;;5016430;28;20064;-84
2023/07/01 06:44:55;;;;;;;3.83;2.90;;;;;;;;;;5002141;28;20030;-84
2023/07/01 06:47:20;;;;;;;5.53;3.30;;;;;;;;;;5002721;28;20026;-83
2023/07/01 06:49:46;;;;;;;5.97;3.05;;;;;;;;;;5014234;28;20096;-85
2023/07/01 06:52:11;;;;;;;5.38;3.78;;;;;;;;;;5009738;28;20038;-83
2023/07/01 06:54:37;;;;;;;4.75;3.28;;;;;;;;;;5016165;28;20030;-84
2023/07/01 06:57:02;;;;;;;4.55;3.35;;;;;;;;;;5011677;28;20026;-84
2023/07/01 06:59:28;;;;;;;4.43;3.25;;;;;;;;;;5013848;28;20029;-83
2023/07/01 07:01:53;;;;;;;5.68;4.00;;;;;;;;;;4998563;28;20119;-84
2023/07/01 07:04:19;;;;;;;5.75;3.97;;;;;;;;;;5003751;28;20030;-85
2023/07/01 07:06:44;;;;;;;5.75;3.50;;;;;;;;;;5004861;28;20130;-86
2023/07/01 07:09:10;;;;;;;5.18;3.53;;;;;;;;;;5023138;28;20034;-85
2023/07/01 07:11:35;;;;;;;4.95;3.67;;;;;;;;;;5009614;28;20103;-85
2023/07/01 07:14:01;;;;;;;5.55;3.42;;;;;;;;;;5030353;28;20049;-85
2023/07/01 07:16:27;;;;;;;4.45;3.50;;;;;;;;;;5009787;28;20057;-87
2023/07/01 07:18:52;;;;;;;6.03;3.80;;;;;;;;;;4996825;28;20137;-85
2023/07/01 07:21:18;;;;;;;5.10;3.40;;;;;;;;;;5000585;28;20053;-86
2023/07/01 07:23:43;;;;;;;5.35;3.58;;;;;;;;;;5001276;28;20037;-85
2023/07/01 07:26:09;;;;;;;5.10;3.25;;;;;;;;;;5024348;28;20097;-83
2023/07/01 07:28:35;;;;;;;4.90;3.00;;;;;;;;;;4996649;28;20038;-85
2023/07/01 07:31:01;;;;;;;4.10;2.63;;;;;;;;;;5016633;28;20033;-87
2023/07/01 07:33:26;;;;;;;3.65;2.47;;;;;;;;;;5014295;28;20038;-84
2023/07/01 07:35:52;;;;;;;4.07;2.25;;;;;;;;;;4999296;28;20034;-83
2023/07/01 07:38:18;;;;;;;3.75;2.08;;;;;;;;;;4999391;28;20042;-82
2023/07/01 07:40:43;;;;;;;3.00;1.90;;;;;;;;;;5004759;28;20041;-85
2023/07/01 07:43:10;;;;;;;4.95;2.00;;;;;;;;;;5009885;28;20048;-84
2023/07/01 07:45:36;;;;;;;2.83;2.10;;;;;;;;;;5007133;28;20040;-84
2023/07/01 07:48:01;;;;;;;3.38;2.20;;;;;;;;;;5017281;28;20132;-84
2023/07/01 07:50:27;;;;;;;2.80;2.10;;;;;;;;;;5006074;28;20125;-84
2023/07/01 07:52:52;;;;;;;3.67;2.28;;;;;;;;;;5001308;28;20041;-84
2023/07/01 07:55:18;;;;;;;4.10;2.58;;;;;;;;;;5007086;28;20037;-86
2023/07/01 07:57:43;;;;;;;4.63;2.83;;;;;;;;;;5016987;28;20049;-84
2023/07/01 08:00:09;;;;;;;4.18;2.90;;;;;;;;;;5016800;28;20185;-83
2023/07/01 08:02:44;;;;;;;4.28;2.90;;;;;;;;;;5016192;28;20052;-84
2023/07/01 08:05:14;;;;;;;5.25;2.60;;;;;;;;;;5013297;28;20025;-85
2023/07/01 08:07:40;;;;;;;4.95;2.90;;;;;;;;;;5019379;28;20038;-85
2023/07/01 08:10:06;;;;;;;4.20;2.78;;;;;;;;;;5013356;28;20767;-85
2023/07/01 08:12:31;;;;;;;4.53;3.03;;;;;;;;;;5004635;28;20412;-84
2023/07/01 08:14:57;;;;;;;4.28;2.88;;;;;;;;;;5014361;28;20038;-84
2023/07/01 08:17:23;;;;;;;4.30;2.60;;;;;;;;;;4999007;28;20081;-84
2023/07/01 08:19:49;;;;;;;3.78;2.50;;;;;;;;;;5014016;28;20038;-84
2023/07/01 08:22:14;;;;;;;3.88;2.50;;;;;;;;;;5032718;28;20041;-84
2023/07/01 08:24:40;;;;;;;4.57;2.63;;;;;;;;;;5000554;28;20050;-84
2023/07/01 08:27:05;;;;;;;4.80;3.17;;;;;;;;;;5005457;28;20033;-83
2023/07/01 08:29:31;;;;;;;3.83;2.70;;;;;;;;;;5006942;28;20069;-84
2023/07/01 08:31:59;;;;;;;4.32;2.65;;;;;;;;;;5014781;28;20611;-84
2023/07/01 08:34:24;;;;;;;6.45;3.00;;;;;;;;;;5012880;28;20034;-85
2023/07/01 08:36:50;;;;;;;5.10;2.80;;;;;;;;;;5020111;28;20022;-85
2023/07/01 08:39:16;;;;;;;4.30;3.10;;;;;;;;;;5018792;28;20061;-86
2023/07/01 08:41:55;;;;;;;4.63;3.05;;;;;;;;;;5025991;28;20046;-85
2023/07/01 08:44:21;;;;;;;5.82;2.80;;;;;;;;;;5014181;28;20195;-84
2023/07/01 08:46:52;;;;;;;4.72;2.97;;;;;;;;;;5014198;28;20026;-84
2023/07/01 08:49:22;;;;;;;5.50;2.80;;;;;;;;;;5018762;28;20037;-85
2023/07/01 08:51:51;;;;;;;4.20;2.92;;;;;;;;;;5014663;28;20038;-86
2023/07/01 08:54:18;;;;;;;5.13;3.10;;;;;;;;;;5009284;28;20042;-85
2023/07/01 08:56:47;;;;;;;5.05;3.03;;;;;;;;;;5018672;28;20030;-85
2023/07/01 08:59:14;;;;;;;5.55;3.10;;;;;;;;;;5007958;28;20045;-85
2023/07/01 09:01:42;;;;;;;6.65;3.63;;;;;;;;;;5007072;28;20042;-85
2023/07/01 09:04:08;;;;;;;8.73;3.75;;;;;;;;;;5008481;28;20041;-86
2023/07/01 09:06:33;;;;;;;6.35;3.70;;;;;;;;;;5015806;28;20033;-84
2023/07/01 09:09:01;;;;;;;6.60;4.07;;;;;;;;;;5019637;28;20068;-85
2023/07/01 09:11:26;;;;;;;4.45;3.33;;;;;;;;;;5013987;28;20409;-85
2023/07/01 09:13:56;;;;;;;5.72;3.20;;;;;;;;;;5005200;28;20030;-86
2023/07/01 09:16:35;;;;;;;7.38;3.47;;;;;;;;;;5005309;28;20519;-80
2023/07/01 09:19:13;;;;;;;4.03;2.78;;;;;;;;;;5019571;28;20506;-84
2023/07/01 09:21:38;;;;;;;4.82;3.15;;;;;;;;;;5006062;28;20041;-84
2023/07/01 09:24:06;;;;;;;5.05;2.80;;;;;;;;;;5012911;28;20038;-84
2023/07/01 09:26:32;;;;;;;4.95;2.70;;;;;;;;;;5025721;28;20496;-83
2023/07/01 09:28:59;;;;;;;4.70;2.88;;;;;;;;;;4997858;28;20480;-84
2023/07/01 09:31:26;;;;;;;4.25;2.80;;;;;;;;;;5012281;28;20038;-84
2023/07/01 09:34:02;;;;;;;5.03;3.17;;;;;;;;;;5012213;28;20105;-84
2023/07/01 09:36:30;;;;;;;5.18;2.65;;;;;;;;;;5004872;28;20048;-84
2023/07/01 09:38:56;;;;;;;3.50;2.40;;;;;;;;;;5001225;28;20034;-84
2023/07/01 09:41:26;;;;;;;5.85;2.58;;;;;;;;;;4996837;28;20105;-83
2023/07/01 09:43:56;;;;;;;4.22;2.55;;;;;;;;;;5005136;28;20031;-83
2023/07/01 09:46:22;;;;;;;4.43;2.60;;;;;;;;;;4981772;28;20065;-83
2023/07/01 09:48:53;;;;;;;4.85;2.38;;;;;;;;;;5001118;28;20483;-84
2023/07/01 09:51:20;;;;;;;3.83;2.33;;;;;;;;;;5003130;28;20481;-85
2023/07/01 09:53:46;;;;;;;2.92;2.42;;;;;;;;;;5009626;28;20057;-84
2023/07/01 09:56:15;;;;;;;3.20;1.95;;;;;;;;;;5018034;28;20100;-83
2023/07/01 09:58:41;;;;;;;3.72;2.38;;;;;;;;;;5000343;28;20572;-84
2023/07/01 10:01:07;;;;;;;4.85;2.50;;;;;;;;;;4987740;28;20045;-83
2023/07/01 10:03:32;;;;;;;5.63;2.38;;;;;;;;;;4994314;28;20157;-84
2023/07/01 10:05:58;;;;;;;4.40;2.30;;;;;;;;;;5015407;28;20039;-86
2023/07/01 10:08:23;;;;;;;4.40;2.40;;;;;;;;;;5005544;28;20042;-85
2023/07/01 10:11:03;;;;;;;2.92;2.30;;;;;;;;;;5008433;28;20036;-84
2023/07/01 10:13:31;;;;;;;4.32;2.50;;;;;;;;;;5016749;28;20099;-85
2023/07/01 10:16:01;;;;;;;4.65;2.60;;;;;;;;;;5014994;28;20472;-85
2023/07/01 10:18:30;;;;;;;3.70;2.85;;;;;;;;;;5001249;28;20037;-84
2023/07/01 10:21:24;;;;;;;3.53;2.70;;;;;;;;;;5018596;28;20038;-85
2023/07/01 10:23:58;;;;;;;3.88;2.60;;;;;;;;;;5011010;28;20052;-85
2023/07/01 10:26:46;;;;;;;3.35;2.65;;;;;;;;;;5007251;28;20045;-84
2023/07/01 10:29:27;;;;;;;5.45;2.78;;;;;;;;;;5016355;28;20053;-83
2023/07/01 10:32:08;;;;;;;3.95;2.60;;;;;;;;;;5009226;28;20026;-84
2023/07/01 10:34:52;;;;;;;4.15;2.58;;;;;;;;;;4998757;28;20376;-84
2023/07/01 10:37:19;;;;;;;3.67;2.97;;;;;;;;;;4987440;28;20038;-84
2023/07/01 10:39:44;;;;;;;5.07;2.92;;;;;;;;;;5011114;28;20022;-84
2023/07/01 10:42:34;;;;;;;4.10;2.60;;;;;;;;;;5013564;28;20125;-83
2023/07/01 10:45:12;;;;;;;7.57;2.90;;;;;;;;;;5011701;28;20472;-84
2023/07/01 10:47:37;;;;;;;4.25;2.70;;;;;;;;;;5006816;28;20100;-83
2023/07/01 10:50:08;;;;;;;5.40;3.38;;;;;;;;;;5010748;28;20104;-84
2023/07/01 10:52:56;;;;;;;5.30;2.78;;;;;;;;;;5011099;28;20096;-84
2023/07/01 10:55:49;;;;;;;4.57;2.78;;;;;;;;;;5014522;28;20053;-83
2023/07/01 10:58:26;;;;;;;7.00;3.85;;;;;;;;;;5002415;28;20062;-84
2023/07/01 11:00:58;;;;;;;5.60;3.75;;;;;;;;;;5018090;28;20026;-82
2023/07/01 11:03:36;;;;;;;4.00;3.10;;;;;;;;;;5023957;28;20042;-83
2023/07/01 11:06:10;;;;;;;7.03;3.20;;;;;;;;;;5009845;28;20483;-82
2023/07/01 11:08:47;;;;;;;4.60;2.92;;;;;;;;;;5012082;28;20046;-83
2023/07/01 11:11:25;;;;;;;4.63;2.90;;;;;;;;;;5002796;28;20105;-83
2023/07/01 11:14:09;;;;;;;5.93;2.95;;;;;;;;;;4995884;28;20046;-82
2023/07/01 11:16:37;;;;;;;3.67;2.70;;;;;;;;;;5005291;28;20539;-82
2023/07/01 11:21:46;;;;;;;5.22;2.63;;;;;;;;;;4961255;28;20043;-86
2023/07/01 11:24:11;;;;;;;3.40;2.60;;;;;;;;;;4961571;28;20019;-85
2023/07/01 11:26:43;;;;;;;5.20;2.72;;;;;;;;;;4965150;28;20054;-84
2023/07/01 11:29:10;;;;;;;3.47;2.55;;;;;;;;;;4964634;28;20109;-84
2023/07/01 11:31:37;;;;;;;4.05;2.60;;;;;;;;;;4970095;28;20073;-84
2023/07/01 11:34:02;;;;;;;5.20;2.50;;;;;;;;;;4973291;28;20023;-83
2023/07/01 11:36:44;;;;;;;5.80;2.42;;;;;;;;;;4962118;28;20053;-83
2023/07/01 11:39:17;;;;;;;3.40;2.45;;;;;;;;;;4944025;28;20097;-83
2023/07/01 11:41:51;;;;;;;5.93;2.25;;;;;;;;;;4965876;28;20026;-84
2023/07/01 11:44:20;;;;;;;3.90;2.60;;;;;;;;;;4951554;28;20069;-83
2023/07/01 11:46:46;;;;;;;3.20;2.40;;;;;;;;;;4955459;28;20057;-85
2023/07/01 11:49:32;;;;;;;4.30;2.60;;;;;;;;;;4961921;28;20372;-84
2023/07/01 11:51:59;;;;;;;3.78;2.40;;;;;;;;;;4955184;28;20150;-85
2023/07/01 11:54:44;;;;;;;5.07;2.60;;;;;;;;;;4965140;28;20396;-84
2023/07/01 11:57:15;;;;;;;5.53;2.35;;;;;;;;;;4950984;28;20200;-84
2023/07/01 11:59:45;;;;;;;6.47;3.05;;;;;;;;;;4972872;28;20038;-84
2023/07/01 12:02:11;;;;;;;5.43;2.40;;;;;;;;;;4956668;28;20042;-84
2023/07/01 12:04:37;;;;;;;3.95;2.10;;;;;;;;;;4956092;28;20035;-83
2023/07/01 12:07:09;;;;;;;4.18;2.20;;;;;;;;;;4965739;28;20031;-83
2023/07/01 12:09:35;;;;;;;5.50;2.15;;;;;;;;;;4961853;28;20081;-83
2023/07/01 12:12:00;;;;;;;6.85;2.30;;;;;;;;;;4958038;28;20035;-83
2023/07/01 12:14:26;;;;;;;4.00;2.22;;;;;;;;;;4955259;28;20031;-84
2023/07/01 12:16:53;;;;;;;3.55;2.25;;;;;;;;;;4961237;28;20529;-83
2023/07/01 12:19:20;;;;;;;3.47;2.20;;;;;;;;;;4964696;28;20493;-83
2023/07/01 12:21:47;;;;;;;5.82;2.40;;;;;;;;;;4969239;28;20399;-83
2023/07/01 12:24:17;;;;;;;3.53;2.17;;;;;;;;;;4955549;28;20058;-82
2023/07/01 12:26:42;;;;;;;5.75;2.65;;;;;;;;;;4964805;28;20038;-81
2023/07/01 12:29:08;;;;;;;2.83;2.03;;;;;;;;;;4960702;28;20385;-81
2023/07/01 12:31:33;;;;;;;5.55;2.00;;;;;;;;;;4963977;28;20085;-80
2023/07/01 12:33:59;;;;;;;4.55;2.30;;;;;;;;;;4966915;28;20023;-82
2023/07/01 12:36:26;;;;;;;5.20;2.17;;;;;;;;;;4972303;28;20492;-83
2023/07/01 12:38:52;;;;;;;2.50;1.83;;;;;;;;;;4969164;28;20034;-82
2023/07/01 12:41:18;;;;;;;4.35;2.60;;;;;;;;;;4960504;28;20436;-83
2023/07/01 12:43:47;;;;;;;4.88;2.10;;;;;;;;;;4964662;28;20127;-83
2023/07/01 12:46:13;;;;;;;5.53;2.20;;;;;;;;;;4967383;28;20078;-82
2023/07/01 12:48:43;;;;;;;3.88;2.33;;;;;;;;;;4971566;28;20062;-83
2023/07/01 12:51:08;;;;;;;4.15;2.30;;;;;;;;;;4940352;28;20034;-82
2023/07/01 12:53:34;;;;;;;3.78;2.10;;;;;;;;;;4960208;28;20110;-81
2023/07/01 12:55:59;;;;;;;4.88;2.40;;;;;;;;;;4965360;28;20039;-82
2023/07/01 12:58:24;;;;;;;3.35;1.98;;;;;;;;;;4967014;28;20666;-82
2023/07/01 13:00:50;;;;;;;3.75;2.00;;;;;;;;;;4971113;28;20030;-82
2023/07/01 13:03:16;;;;;;;3.67;2.00;;;;;;;;;;4972483;28;20081;-83
2023/07/01 13:05:42;;;;;;;4.38;2.20;;;;;;;;;;4957608;28;20031;-82
2023/07/01 13:08:11;;;;;;;4.57;2.28;;;;;;;;;;4961370;28;20436;-81
2023/07/01 13:10:39;;;;;;;5.93;2.38;;;;;;;;;;4964553;28;20034;-81
2023/07/01 13:13:05;;;;;;;3.33;2.22;;;;;;;;;;4961459;28;20462;-81
2023/07/01 13:15:34;;;;;;;4.07;2.30;;;;;;;;;;4958350;28;20071;-82
2023/07/01 13:18:03;;;;;;;3.72;2.40;;;;;;;;;;4957122;28;20416;-82
2023/07/01 13:20:29;;;;;;;4.95;2.10;;;;;;;;;;4960826;28;20041;-82
2023/07/01 13:22:56;;;;;;;4.18;2.20;;;;;;;;;;4966023;28;20035;-83
2023/07/01 13:25:24;;;;;;;4.35;2.03;;;;;;;;;;4962873;28;20038;-83
2023/07/01 13:27:53;;;;;;;2.78;2.00;;;;;;;;;;4972979;28;20489;-83
2023/07/01 13:30:47;;;;;;;4.15;2.10;;;;;;;;;;4962675;28;20393;-82
2023/07/01 13:33:24;;;;;;;4.75;2.35;;;;;;;;;;4944995;28;20041;-82
2023/07/01 13:35:54;;;;;;;3.08;2.20;;;;;;;;;;4965915;28;20034;-83
2023/07/01 13:38:21;;;;;;;4.25;2.20;;;;;;;;;;4962114;28;20062;-83
2023/07/01 13:40:47;;;;;;;2.72;2.08;;;;;;;;;;4956914;28;20070;-81
2023/07/01 13:43:18;;;;;;;3.22;2.00;;;;;;;;;;4956942;28;20081;-82
2023/07/01 13:45:44;;;;;;;3.25;2.13;;;;;;;;;;4970964;28;20095;-81
2023/07/01 13:48:42;;;;;;;2.97;2.00;;;;;;;;;;4967713;28;20125;-81
2023/07/01 13:51:08;;;;;;;4.68;2.28;;;;;;;;;;4944675;28;20035;-82
2023/07/01 13:53:34;;;;;;;5.13;1.90;;;;;;;;;;4953459;28;20548;-81
2023/07/01 13:56:01;;;;;;;3.75;2.15;;;;;;;;;;4958836;28;20110;-81
2023/07/01 13:58:27;;;;;;;2.40;1.90;;;;;;;;;;4962493;28;20381;-82
2023/07/01 14:00:53;;;;;;;5.68;2.20;;;;;;;;;;4967066;28;20024;-82
2023/07/01 14:03:22;;;;;;;5.32;2.13;;;;;;;;;;4969779;28;20030;-82
2023/07/01 14:05:54;;;;;;;4.90;2.08;;;;;;;;;;4959658;28;20114;-81
2023/07/01 14:08:23;;;;;;;3.30;1.98;;;;;;;;;;4957710;28;20044;-81
2023/07/01 14:10:49;;;;;;;3.17;1.95;;;;;;;;;;4972994;28;20439;-81
2023/07/01 14:13:15;;;;;;;3.00;2.03;;;;;;;;;;4971319;28;20374;-81
2023/07/01 14:15:49;;;;;;;4.50;2.22;;;;;;;;;;4967638;28;20119;-81
2023/07/01 14:18:17;;;;;;;2.47;1.92;;;;;;;;;;4963676;28;20078;-81
2023/07/01 14:20:54;;;;;;;3.17;2.20;;;;;;;;;;4961671;28;20034;-82
2023/07/01 14:23:21;;;;;;;2.95;2.05;;;;;;;;;;4965358;28;20038;-82
2023/07/01 14:25:50;;;;;;;3.30;2.08;;;;;;;;;;4968352;28;20030;-83
2023/07/01 14:28:16;;;;;;;4.68;1.88;;;;;;;;;;4956181;28;20050;-83
2023/07/01 14:31:08;;;;;;;3.65;1.90;;;;;;;;;;4975293;28;20026;-82
2023/07/01 14:33:41;;;;;;;3.03;1.98;;;;;;;;;;4969198;28;20047;-82
2023/07/01 14:36:26;;;;;;;3.47;2.10;;;;;;;;;;4964946;28;20170;-82
2023/07/01 14:38:51;;;;;;;2.92;2.03;;;;;;;;;;4970019;28;20045;-83